Time;durP1;ratioP1;P1;durP2;ratioP2;P2;SDS_P1;SDS_P2;PMS_P1;PMS_P2;Temp;Humidity;BMP_temperature;BMP_pressure;BME280_temperature;BME280_humidity;BME280_pressure;Samples;Min_cycle;Max_cycle;Signal;HPM_P1;HPM_P2
2022/09/28 00:06:47;;;;;;;0.20;0.03;;;18.40;99.90;;;;;;26080642;22;20226;-68
2022/09/28 00:16:52;;;;;;;0.20;0.00;;;18.30;99.90;;;;;;26080060;22;20192;-67
2022/09/28 00:27:00;;;;;;;0.20;0.00;;;18.30;99.90;;;;;;26052975;22;20207;-67
2022/09/28 00:37:07;;;;;;;0.20;0.00;;;18.20;99.90;;;;;;26052602;22;20204;-67
2022/09/28 00:47:24;;;;;;;0.20;0.10;;;17.90;99.90;;;;;;26079161;22;20188;-67
2022/09/28 00:57:30;;;;;;;0.20;0.10;;;17.80;99.90;;;;;;26051429;22;20208;-68
2022/09/28 01:07:35;;;;;;;0.20;0.10;;;17.90;99.90;;;;;;26051184;22;20188;-67
2022/09/28 01:17:55;;;;;;;0.20;0.10;;;17.90;99.90;;;;;;26077468;22;20195;-67
2022/09/28 01:28:05;;;;;;;0.20;0.00;;;17.70;99.90;;;;;;26076922;22;20186;-67
2022/09/28 01:38:16;;;;;;;0.20;0.00;;;17.70;99.90;;;;;;26076423;22;20184;-66
2022/09/28 01:48:27;;;;;;;0.20;0.10;;;17.60;99.90;;;;;;26076270;22;20178;-67
2022/09/28 01:58:36;;;;;;;0.20;0.00;;;17.40;99.90;;;;;;26075792;22;20195;-67
2022/09/28 02:08:49;;;;;;;0.20;0.10;;;17.20;99.90;;;;;;26075648;22;20203;-67
2022/09/28 02:18:53;;;;;;;0.20;0.10;;;17.20;99.90;;;;;;26075868;22;20180;-66
2022/09/28 02:28:58;;;;;;;0.20;0.10;;;17.00;99.90;;;;;;26075204;22;20187;-67
2022/09/28 02:39:02;;;;;;;0.20;0.10;;;16.80;99.90;;;;;;26048373;22;20184;-67
2022/09/28 02:49:18;;;;;;;0.20;0.10;;;17.00;99.90;;;;;;26078529;22;20176;-67
2022/09/28 02:59:46;;;;;;;0.20;0.00;;;17.00;99.90;;;;;;25954394;23;20283;-68
2022/09/28 03:09:59;;;;;;;0.20;0.10;;;16.90;99.90;;;;;;25955066;23;20184;-67
2022/09/28 03:20:03;;;;;;;0.20;0.10;;;16.70;99.90;;;;;;25954824;22;20184;-66
2022/09/28 03:30:09;;;;;;;0.20;0.07;;;16.60;99.90;;;;;;25954204;22;20157;-67
2022/09/28 03:40:13;;;;;;;0.20;0.10;;;16.60;99.90;;;;;;25953296;23;20260;-68
2022/09/28 03:50:18;;;;;;;0.20;0.00;;;16.60;99.90;;;;;;25953378;22;20176;-68
2022/09/28 04:00:22;;;;;;;0.20;0.10;;;16.60;99.90;;;;;;25948097;23;20254;-69
2022/09/28 04:10:28;;;;;;;0.20;0.10;;;16.50;99.90;;;;;;25945675;23;20180;-67
2022/09/28 04:20:32;;;;;;;0.20;0.10;;;16.60;99.90;;;;;;25951587;23;20204;-68
2022/09/28 04:30:37;;;;;;;0.20;0.10;;;16.80;99.90;;;;;;25951149;22;20197;-67
2022/09/28 04:40:40;;;;;;;0.20;0.00;;;16.80;99.90;;;;;;25949959;22;20196;-68
2022/09/28 04:50:53;;;;;;;0.20;0.00;;;16.60;99.90;;;;;;25949988;23;20168;-68
2022/09/28 05:00:59;;;;;;;0.20;0.10;;;16.60;99.90;;;;;;25949249;23;20204;-70
2022/09/28 05:11:06;;;;;;;0.20;0.10;;;16.70;99.90;;;;;;25947226;23;20203;-65
2022/09/28 05:21:11;;;;;;;0.20;0.10;;;16.50;99.90;;;;;;25948686;22;20203;-72
2022/09/28 05:31:16;;;;;;;0.20;0.10;;;16.20;99.90;;;;;;25946223;23;20198;-68
2022/09/28 05:41:20;;;;;;;0.20;0.10;;;16.50;99.90;;;;;;25945160;23;20203;-68
2022/09/28 05:51:25;;;;;;;0.20;0.10;;;16.70;99.90;;;;;;25947564;22;20261;-69
2022/09/28 06:01:29;;;;;;;0.20;0.10;;;16.40;99.90;;;;;;26036219;22;20260;-69
2022/09/28 06:11:34;;;;;;;0.20;0.10;;;16.50;99.90;;;;;;26041561;22;20176;-69
2022/09/28 06:21:39;;;;;;;0.20;0.00;;;16.50;99.90;;;;;;26072888;22;20225;-69
2022/09/28 06:31:44;;;;;;;0.20;0.10;;;16.60;99.90;;;;;;26054119;22;20179;-69
2022/09/28 06:41:48;;;;;;;0.20;0.10;;;16.30;99.90;;;;;;26079743;22;20180;-68
2022/09/28 06:51:53;;;;;;;0.20;0.00;;;16.40;99.90;;;;;;26077328;22;20200;-67
2022/09/28 07:01:57;;;;;;;0.20;0.00;;;17.00;99.90;;;;;;26077821;22;20192;-69
2022/09/28 07:12:03;;;;;;;0.20;0.00;;;17.70;99.90;;;;;;26048673;22;20204;-69
2022/09/28 07:22:06;;;;;;;0.20;0.00;;;18.00;99.90;;;;;;26047002;22;20211;-69
2022/09/28 07:32:11;;;;;;;0.20;0.00;;;18.40;99.90;;;;;;26049625;22;20168;-68
2022/09/28 07:42:15;;;;;;;0.20;0.00;;;18.70;99.90;;;;;;26076164;22;20203;-69
2022/09/28 07:52:24;;;;;;;0.20;0.10;;;18.70;99.90;;;;;;26076271;22;20180;-70
2022/09/28 08:02:29;;;;;;;0.20;0.10;;;19.20;99.90;;;;;;26049941;22;20192;-69
2022/09/28 08:12:34;;;;;;;0.20;0.00;;;19.30;99.90;;;;;;26075997;22;20191;-68
2022/09/28 08:22:38;;;;;;;0.20;0.10;;;19.50;99.90;;;;;;26074798;22;20190;-68
2022/09/28 08:32:48;;;;;;;0.20;0.00;;;19.60;99.90;;;;;;26048836;22;20187;-70
2022/09/28 08:42:56;;;;;;;0.20;0.00;;;19.40;99.90;;;;;;26045835;22;20183;-68
2022/09/28 08:53:09;;;;;;;0.20;0.00;;;19.90;99.90;;;;;;26073053;22;20206;-68
2022/09/28 09:03:16;;;;;;;0.20;0.00;;;20.10;99.90;;;;;;26044949;22;20245;-69
2022/09/28 09:14:01;;;;;;;0.20;0.10;;;20.50;99.90;;;;;;26045848;22;20200;-67
2022/09/28 09:24:27;;;;;;;0.20;0.00;;;20.80;99.90;;;;;;26038326;22;20343;-69
2022/09/28 09:34:57;;;;;;;0.20;0.03;;;20.70;99.90;;;;;;26068242;22;20179;-68
2022/09/28 09:45:18;;;;;;;0.20;0.00;;;21.20;99.90;;;;;;26068392;22;20192;-68
2022/09/28 09:55:28;;;;;;;0.20;0.10;;;21.30;99.90;;;;;;26070778;22;20192;-68
2022/09/28 10:05:34;;;;;;;0.20;0.00;;;21.80;99.90;;;;;;26072034;22;20192;-69
2022/09/28 10:15:42;;;;;;;0.20;0.00;;;22.20;99.90;;;;;;26072190;22;20169;-69
2022/09/28 10:25:48;;;;;;;0.20;0.00;;;22.50;99.90;;;;;;26071272;22;20185;-68
2022/09/28 10:35:53;;;;;;;0.20;0.00;;;22.50;99.90;;;;;;26071625;22;20205;-69
2022/09/28 10:46:02;;;;;;;0.20;0.00;;;23.20;99.90;;;;;;26070638;22;20204;-69
2022/09/28 10:56:19;;;;;;;0.20;0.00;;;23.80;99.90;;;;;;26071402;22;20226;-69
2022/09/28 11:06:28;;;;;;;0.20;0.10;;;23.60;99.90;;;;;;26044364;22;20200;-69
2022/09/28 11:16:35;;;;;;;0.20;0.00;;;23.50;99.90;;;;;;26075142;22;20156;-69
2022/09/28 11:26:42;;;;;;;0.20;0.00;;;23.50;99.90;;;;;;26076636;22;20180;-68
2022/09/28 11:37:03;;;;;;;0.20;0.00;;;23.60;99.90;;;;;;26048859;22;20156;-68
2022/09/28 11:47:19;;;;;;;0.20;0.00;;;24.10;99.90;;;;;;26049906;22;20207;-70
2022/09/28 11:57:29;;;;;;;0.20;0.00;;;23.90;99.90;;;;;;26077647;22;20208;-68
2022/09/28 12:07:37;;;;;;;0.20;0.10;;;23.40;99.90;;;;;;26023968;22;20283;-70
2022/09/28 12:17:48;;;;;;;0.20;0.00;;;25.20;99.90;;;;;;26074034;22;20161;-69
2022/09/28 12:27:56;;;;;;;0.20;0.00;;;25.70;99.90;;;;;;26047871;22;20207;-69
2022/09/28 12:38:38;;;;;;;0.20;0.00;;;25.50;99.90;;;;;;26040558;22;20160;-69
2022/09/28 12:49:19;;;;;;;0.20;0.00;;;25.60;99.90;;;;;;26015763;22;20214;-69
2022/09/28 13:00:00;;;;;;;0.20;0.00;;;26.90;99.90;;;;;;26074640;22;20206;-68
2022/09/28 13:10:15;;;;;;;0.20;0.00;;;27.10;99.90;;;;;;26075046;22;20188;-70
2022/09/28 13:20:34;;;;;;;0.20;0.00;;;27.20;99.90;;;;;;26073358;22;20217;-69
2022/09/28 13:30:40;;;;;;;0.20;0.00;;;27.50;99.90;;;;;;26020868;22;20160;-69
2022/09/28 13:41:15;;;;;;;0.20;0.00;;;28.60;99.90;;;;;;26071971;22;20172;-68
2022/09/28 13:51:39;;;;;;;0.20;0.00;;;29.50;99.90;;;;;;26073313;22;20196;-68
2022/09/28 14:01:54;;;;;;;0.20;0.00;;;29.60;99.90;;;;;;26072477;22;20176;-68
2022/09/28 14:11:59;;;;;;;0.20;0.00;;;30.50;99.90;;;;;;26072989;22;20172;-71
2022/09/28 14:22:18;;;;;;;0.20;0.00;;;29.40;99.90;;;;;;26072047;22;20179;-70
2022/09/28 14:32:23;;;;;;;0.20;0.10;;;28.00;99.90;;;;;;26043604;22;20206;-71
2022/09/28 14:42:29;;;;;;;0.20;0.00;;;28.10;99.90;;;;;;26071988;22;20278;-69
2022/09/28 14:52:42;;;;;;;0.20;0.00;;;27.60;99.90;;;;;;26079021;22;20212;-68
2022/09/28 15:02:51;;;;;;;0.20;0.00;;;27.30;99.90;;;;;;26076868;22;20259;-69
2022/09/28 15:12:56;;;;;;;0.20;0.00;;;27.10;99.90;;;;;;26050632;22;20183;-68
2022/09/28 15:23:00;;;;;;;0.20;0.00;;;27.00;99.90;;;;;;26049899;22;20196;-69
2022/09/28 15:43:31;;;;;;;0.20;0.00;;;26.50;99.90;;;;;;26049471;22;20179;-68
2022/09/28 15:53:35;;;;;;;0.20;0.00;;;26.00;99.90;;;;;;26049567;22;20192;-69
2022/09/28 16:03:40;;;;;;;0.20;0.00;;;26.00;99.90;;;;;;26049993;22;20258;-68
2022/09/28 16:13:56;;;;;;;0.20;0.00;;;26.10;99.90;;;;;;26048825;22;20188;-68
2022/09/28 16:24:02;;;;;;;0.20;0.00;;;25.90;99.90;;;;;;26047041;22;20176;-69
2022/09/28 16:34:16;;;;;;;0.20;0.00;;;25.60;99.90;;;;;;26074203;22;20184;-70
2022/09/28 16:44:25;;;;;;;0.20;0.00;;;25.50;99.90;;;;;;26073251;22;20218;-69
2022/09/28 17:04:52;;;;;;;0.20;0.00;;;25.20;99.90;;;;;;26069838;22;20286;-68
2022/09/28 17:14:56;;;;;;;0.20;0.00;;;25.20;99.90;;;;;;26043516;22;20160;-69
2022/09/28 17:25:01;;;;;;;0.20;0.10;;;24.90;99.90;;;;;;26071654;22;20235;-68
2022/09/28 17:35:08;;;;;;;0.20;0.00;;;24.70;99.90;;;;;;26044052;22;20188;-70
2022/09/28 17:45:30;;;;;;;0.20;0.00;;;24.60;99.90;;;;;;26069893;22;20176;-69
2022/09/28 17:55:35;;;;;;;0.20;0.00;;;24.50;99.90;;;;;;26043414;22;20199;-69
2022/09/28 18:05:40;;;;;;;0.20;0.00;;;24.20;99.90;;;;;;26071555;22;20241;-70
2022/09/28 18:15:44;;;;;;;0.20;0.00;;;24.20;99.90;;;;;;26068065;22;20149;-69
2022/09/28 18:25:49;;;;;;;0.20;0.00;;;23.90;99.90;;;;;;26040895;22;20204;-69
2022/09/28 18:35:54;;;;;;;0.20;0.00;;;23.80;99.90;;;;;;26039672;22;20168;-69
2022/09/28 18:46:06;;;;;;;0.20;0.00;;;23.70;99.90;;;;;;26070373;22;20191;-69
2022/09/28 18:56:13;;;;;;;0.20;0.00;;;23.60;99.90;;;;;;26069322;22;20196;-68
2022/09/28 19:06:18;;;;;;;0.20;0.00;;;23.30;99.90;;;;;;26070404;22;20192;-70
2022/09/28 19:16:23;;;;;;;0.20;0.00;;;23.20;99.90;;;;;;26066047;22;20220;-69
2022/09/28 19:26:29;;;;;;;0.20;0.10;;;22.90;99.90;;;;;;26064602;22;20249;-69
2022/09/28 19:36:33;;;;;;;0.20;0.10;;;22.50;99.90;;;;;;26046556;22;20168;-69
2022/09/28 19:46:40;;;;;;;0.20;0.00;;;21.50;99.90;;;;;;26047929;22;20196;-70
2022/09/28 19:56:47;;;;;;;0.20;0.00;;;21.10;99.90;;;;;;26074289;22;20196;-70
2022/09/28 20:06:52;;;;;;;0.20;0.00;;;20.80;99.90;;;;;;26047439;22;20192;-69
2022/09/28 20:16:56;;;;;;;0.20;0.10;;;20.20;99.90;;;;;;26046756;22;20180;-69
2022/09/28 20:27:01;;;;;;;0.20;0.03;;;19.70;99.90;;;;;;26076486;22;20176;-69
2022/09/28 20:37:05;;;;;;;0.20;0.10;;;19.60;99.90;;;;;;26069863;22;20176;-69
2022/09/28 20:47:10;;;;;;;0.20;0.10;;;19.60;99.90;;;;;;26072193;22;20226;-69
2022/09/28 20:57:20;;;;;;;0.20;0.00;;;19.50;99.90;;;;;;26023514;22;20240;-70
2022/09/28 21:07:25;;;;;;;0.20;0.10;;;20.50;99.90;;;;;;26075892;22;20810;-69
2022/09/28 21:17:28;;;;;;;0.20;0.00;;;20.50;99.90;;;;;;26076720;22;20176;-69
2022/09/28 21:27:34;;;;;;;0.20;0.10;;;20.30;99.90;;;;;;26075890;22;20203;-69
2022/09/28 21:37:38;;;;;;;0.20;0.00;;;20.40;99.90;;;;;;26049407;22;20179;-69
2022/09/28 21:47:51;;;;;;;0.20;0.00;;;20.40;99.90;;;;;;26075787;22;20235;-69
2022/09/28 21:57:55;;;;;;;0.20;0.03;;;20.30;99.90;;;;;;26075174;22;20199;-69
2022/09/28 22:08:02;;;;;;;0.20;0.00;;;20.10;99.90;;;;;;26049081;22;20224;-68
2022/09/28 22:18:06;;;;;;;0.20;0.10;;;20.20;99.90;;;;;;26075462;22;20179;-70
2022/09/28 22:28:11;;;;;;;0.20;0.00;;;20.20;99.90;;;;;;26048308;22;20233;-69
2022/09/28 22:38:14;;;;;;;0.20;0.10;;;20.20;99.90;;;;;;26074719;22;20168;-69
2022/09/28 22:48:19;;;;;;;0.20;0.10;;;20.00;99.90;;;;;;26047735;22;20208;-68
2022/09/28 22:58:23;;;;;;;0.20;0.10;;;19.90;99.90;;;;;;26048117;22;20207;-68
